createdAt,value
2018-12-15T00:00:22.541Z,99.90
2018-12-15T00:02:50.750Z,99.90
2018-12-15T00:05:18.987Z,99.90
2018-12-15T00:07:47.251Z,99.90
2018-12-15T00:10:15.418Z,99.90
2018-12-15T00:12:43.693Z,99.90
2018-12-15T00:15:11.849Z,99.90
2018-12-15T00:17:40.046Z,99.90
2018-12-15T00:20:08.359Z,99.90
2018-12-15T00:22:36.596Z,99.90
2018-12-15T00:25:05.124Z,99.90
2018-12-15T00:27:34.107Z,99.90
2018-12-15T00:30:03.859Z,99.90
2018-12-15T00:32:31.992Z,99.90
2018-12-15T00:35:01.403Z,99.90
2018-12-15T00:37:29.570Z,99.90
2018-12-15T00:39:57.872Z,99.90
2018-12-15T00:42:31.290Z,99.90
2018-12-15T00:44:59.546Z,99.90
2018-12-15T00:47:27.824Z,99.90
2018-12-15T00:49:55.980Z,99.90
2018-12-15T00:52:24.246Z,99.90
2018-12-15T00:54:52.513Z,99.90
2018-12-15T00:57:20.808Z,99.90
2018-12-15T00:59:48.968Z,99.90
2018-12-15T01:02:17.182Z,99.90
2018-12-15T01:04:45.460Z,99.90
2018-12-15T01:07:13.689Z,99.90
2018-12-15T01:09:41.917Z,99.90
2018-12-15T01:12:11.249Z,99.90
2018-12-15T01:17:20.471Z,99.90
2018-12-15T01:19:46.313Z,99.90
2018-12-15T01:22:14.573Z,99.90
2018-12-15T01:24:42.727Z,99.90
2018-12-15T01:27:10.856Z,99.90
2018-12-15T01:29:39.839Z,99.90
2018-12-15T01:32:08.097Z,99.90
2018-12-15T01:34:36.341Z,99.90
2018-12-15T01:37:05.271Z,99.90
2018-12-15T01:39:33.567Z,99.90
2018-12-15T01:42:01.923Z,99.90
2018-12-15T01:44:30.267Z,99.90
2018-12-15T01:46:58.475Z,99.90
2018-12-15T01:49:26.645Z,99.90
2018-12-15T01:51:55.164Z,99.90
2018-12-15T01:54:23.266Z,99.90
2018-12-15T01:56:51.405Z,99.90
2018-12-15T01:59:19.598Z,99.90
2018-12-15T02:01:48.002Z,99.90
2018-12-15T02:04:16.158Z,99.90
2018-12-15T02:06:44.671Z,99.90
2018-12-15T02:09:13.024Z,99.90
2018-12-15T02:11:41.188Z,99.90
2018-12-15T02:14:09.413Z,99.90
2018-12-15T02:16:37.675Z,99.90
2018-12-15T02:19:05.970Z,99.90
2018-12-15T02:21:34.216Z,99.90
2018-12-15T02:24:02.431Z,99.90
2018-12-15T02:26:30.639Z,99.90
2018-12-15T02:28:58.815Z,99.90
2018-12-15T02:31:27.010Z,99.90
2018-12-15T02:33:56.288Z,99.90
2018-12-15T02:36:24.426Z,99.90
2018-12-15T02:38:52.536Z,99.90
2018-12-15T02:41:20.774Z,99.90
2018-12-15T02:43:49.060Z,99.90
2018-12-15T02:46:17.335Z,99.90
2018-12-15T02:48:45.625Z,99.90
2018-12-15T02:51:13.869Z,99.90
2018-12-15T02:53:42.107Z,99.90
2018-12-15T02:56:11.140Z,99.90
2018-12-15T02:58:39.394Z,99.90
2018-12-15T03:01:07.730Z,99.70
2018-12-15T03:03:35.911Z,98.70
2018-12-15T03:06:05.507Z,99.10
2018-12-15T03:08:33.760Z,99.10
2018-12-15T03:11:01.885Z,98.30
2018-12-15T03:13:30.239Z,97.20
2018-12-15T03:15:58.437Z,97.80
2018-12-15T03:18:26.546Z,98.30
2018-12-15T03:21:01.418Z,98.50
2018-12-15T03:23:29.730Z,98.60
2018-12-15T03:25:59.306Z,98.70
2018-12-15T03:28:27.519Z,98.90
2018-12-15T03:30:57.261Z,98.80
2018-12-15T03:33:25.840Z,99.00
2018-12-15T03:35:54.176Z,98.20
2018-12-15T03:38:22.430Z,98.10
2018-12-15T03:40:50.657Z,98.20
2018-12-15T03:43:18.931Z,98.30
2018-12-15T03:45:47.154Z,98.30
2018-12-15T03:48:15.363Z,98.20
2018-12-15T03:50:43.600Z,98.10
2018-12-15T03:53:12.390Z,98.30
2018-12-15T03:55:41.224Z,98.40
2018-12-15T03:58:09.456Z,98.40
2018-12-15T04:00:38.612Z,98.50
2018-12-15T04:03:06.750Z,98.50
2018-12-15T04:05:39.071Z,98.40
2018-12-15T04:08:08.119Z,98.40
2018-12-15T04:10:36.302Z,98.20
2018-12-15T04:13:05.485Z,98.30
2018-12-15T04:15:33.762Z,98.10
2018-12-15T04:18:03.839Z,98.00
2018-12-15T04:20:32.592Z,98.00
2018-12-15T04:23:00.823Z,98.00
2018-12-15T04:25:29.723Z,98.30
2018-12-15T04:27:59.038Z,98.30
2018-12-15T04:30:27.289Z,98.20
2018-12-15T04:32:55.444Z,98.40
2018-12-15T04:35:23.827Z,98.40
2018-12-15T04:37:52.014Z,98.30
2018-12-15T04:40:20.586Z,98.40
2018-12-15T04:42:48.833Z,98.50
2018-12-15T04:45:17.159Z,98.50
2018-12-15T04:47:45.393Z,98.60
2018-12-15T04:50:14.099Z,98.70
2018-12-15T04:52:43.086Z,98.80
2018-12-15T04:55:11.240Z,98.90
2018-12-15T04:57:39.484Z,99.10
2018-12-15T05:00:07.951Z,99.20
2018-12-15T05:02:36.152Z,99.30
2018-12-15T05:05:04.630Z,99.60
2018-12-15T05:07:32.938Z,99.70
2018-12-15T05:10:01.794Z,99.90
2018-12-15T05:12:30.176Z,99.90
2018-12-15T05:14:58.353Z,99.90
2018-12-15T05:17:26.552Z,99.90
2018-12-15T05:19:54.812Z,99.90
2018-12-15T05:22:23.112Z,99.90
2018-12-15T05:24:52.030Z,99.90
2018-12-15T05:27:20.250Z,99.90
2018-12-15T05:29:48.555Z,99.90
2018-12-15T05:32:16.868Z,99.90
2018-12-15T05:34:45.196Z,99.90
2018-12-15T05:37:13.378Z,99.90
2018-12-15T05:39:42.520Z,99.90
2018-12-15T05:42:10.758Z,99.90
2018-12-15T05:44:38.998Z,99.90
2018-12-15T05:47:08.877Z,99.90
2018-12-15T05:49:37.113Z,99.90
2018-12-15T05:52:05.286Z,99.90
2018-12-15T05:54:33.505Z,99.90
2018-12-15T05:57:01.698Z,99.90
2018-12-15T05:59:29.947Z,99.90
2018-12-15T06:01:58.915Z,99.90
2018-12-15T06:04:27.022Z,99.90
2018-12-15T06:06:55.177Z,99.90
2018-12-15T06:09:23.367Z,99.90
2018-12-15T06:11:51.683Z,99.90
2018-12-15T06:14:19.987Z,99.90
2018-12-15T06:16:48.181Z,99.90
2018-12-15T06:19:16.360Z,99.90
2018-12-15T06:21:44.647Z,99.90
2018-12-15T06:24:12.893Z,99.90
2018-12-15T06:26:41.186Z,99.90
2018-12-15T06:29:09.359Z,99.90
2018-12-15T06:31:37.533Z,99.90
2018-12-15T06:34:05.679Z,99.90
2018-12-15T06:36:33.919Z,99.90
2018-12-15T06:39:02.135Z,99.90
2018-12-15T06:41:30.383Z,99.90
2018-12-15T06:43:59.351Z,99.90
2018-12-15T06:46:27.596Z,99.90
2018-12-15T06:48:55.789Z,99.90
2018-12-15T06:51:23.939Z,99.90
2018-12-15T06:53:52.141Z,99.90
2018-12-15T06:56:24.584Z,99.90
2018-12-15T06:58:52.771Z,99.90
2018-12-15T07:01:21.064Z,99.90
2018-12-15T07:03:50.371Z,99.90
2018-12-15T07:06:18.557Z,99.90
2018-12-15T07:08:46.777Z,99.90
2018-12-15T07:11:14.989Z,99.90
2018-12-15T07:13:43.929Z,99.90
2018-12-15T07:16:12.123Z,99.90
2018-12-15T07:18:44.828Z,99.90
2018-12-15T07:21:10.634Z,99.90
2018-12-15T07:23:38.899Z,99.90
2018-12-15T07:26:08.391Z,99.90
2018-12-15T07:28:36.510Z,99.90
2018-12-15T07:31:06.083Z,99.90
2018-12-15T07:33:35.996Z,99.90
2018-12-15T07:36:04.374Z,99.90
2018-12-15T07:38:32.637Z,99.90
2018-12-15T07:41:01.865Z,99.90
2018-12-15T07:43:29.973Z,99.90
2018-12-15T07:45:58.221Z,99.90
2018-12-15T07:48:26.455Z,99.90
2018-12-15T07:50:54.645Z,99.90
2018-12-15T07:53:22.943Z,99.90
2018-12-15T07:55:51.163Z,99.90
2018-12-15T07:58:19.422Z,99.90
2018-12-15T08:00:47.659Z,99.90
2018-12-15T08:03:15.864Z,99.90
2018-12-15T08:05:45.018Z,99.90
2018-12-15T08:08:13.160Z,99.90
2018-12-15T08:11:51.198Z,99.90
2018-12-15T08:14:19.568Z,99.90
2018-12-15T08:16:48.924Z,99.90
2018-12-15T08:19:17.288Z,99.90
2018-12-15T08:21:45.549Z,99.90
2018-12-15T08:24:13.853Z,99.90
2018-12-15T08:26:42.118Z,99.90
2018-12-15T08:29:10.323Z,99.90
2018-12-15T08:31:38.555Z,99.90
2018-12-15T08:34:07.167Z,99.90
2018-12-15T08:36:35.367Z,99.90
2018-12-15T08:39:06.096Z,99.90
2018-12-15T08:41:34.854Z,99.90
2018-12-15T08:44:03.268Z,99.90
2018-12-15T08:46:31.500Z,99.90
2018-12-15T08:49:04.614Z,99.90
2018-12-15T08:51:30.770Z,99.90
2018-12-15T08:53:59.078Z,99.90
2018-12-15T08:56:27.394Z,99.90
2018-12-15T08:58:55.511Z,99.90
2018-12-15T09:01:23.602Z,99.90
2018-12-15T09:03:51.882Z,99.90
2018-12-15T09:06:20.225Z,99.90
2018-12-15T09:08:48.362Z,99.90
2018-12-15T09:11:16.544Z,99.90
2018-12-15T09:13:44.831Z,99.90
2018-12-15T09:16:13.108Z,99.90
2018-12-15T09:18:41.374Z,99.90
2018-12-15T09:21:09.750Z,99.90
2018-12-15T09:23:37.954Z,99.90
2018-12-15T09:26:06.197Z,99.90
2018-12-15T09:28:34.482Z,99.90
2018-12-15T09:31:02.719Z,99.90
2018-12-15T09:33:30.951Z,99.90
2018-12-15T09:35:59.422Z,99.90
2018-12-15T09:38:27.583Z,99.90
2018-12-15T09:40:57.617Z,99.90
2018-12-15T09:43:26.121Z,99.90
2018-12-15T09:45:54.400Z,99.90
2018-12-15T09:48:22.660Z,99.90
2018-12-15T09:50:51.295Z,99.90
2018-12-15T09:53:23.157Z,99.90
2018-12-15T09:55:59.170Z,99.90
2018-12-15T09:58:27.458Z,99.90
2018-12-15T10:03:38.372Z,99.90
2018-12-15T10:06:06.839Z,99.90
2018-12-15T10:08:34.995Z,99.90
2018-12-15T10:11:03.672Z,99.90
2018-12-15T10:13:31.857Z,99.90
2018-12-15T10:16:00.143Z,99.90
2018-12-15T10:18:28.386Z,99.90
2018-12-15T10:20:56.629Z,99.90
2018-12-15T10:23:24.872Z,99.90
2018-12-15T10:25:53.130Z,99.90
2018-12-15T10:28:21.504Z,99.90
2018-12-15T10:30:56.011Z,99.90
2018-12-15T10:33:24.485Z,99.90
2018-12-15T10:35:53.048Z,99.90
2018-12-15T10:38:22.190Z,99.90
2018-12-15T10:40:50.464Z,99.90
2018-12-15T10:43:18.790Z,99.90
2018-12-15T10:45:47.058Z,99.90
2018-12-15T10:48:15.348Z,99.90
2018-12-15T10:50:44.373Z,99.90
2018-12-15T10:53:12.670Z,99.90
2018-12-15T10:55:41.134Z,99.90
2018-12-15T10:58:09.406Z,99.90
2018-12-15T11:00:42.900Z,99.90
2018-12-15T11:03:11.154Z,99.90
2018-12-15T11:05:40.891Z,99.90
2018-12-15T11:08:09.108Z,99.90
2018-12-15T11:10:37.312Z,99.90
2018-12-15T11:13:05.654Z,99.90
2018-12-15T11:15:34.738Z,99.90
2018-12-15T11:18:03.002Z,99.90
2018-12-15T11:20:31.228Z,99.90
2018-12-15T11:22:59.478Z,99.90
2018-12-15T11:25:28.961Z,99.90
2018-12-15T11:27:57.362Z,99.90
2018-12-15T11:30:25.585Z,99.90
2018-12-15T11:32:53.721Z,99.90
2018-12-15T11:35:22.221Z,99.90
2018-12-15T11:37:50.513Z,99.90
2018-12-15T11:40:18.848Z,99.90
2018-12-15T11:42:47.101Z,99.90
2018-12-15T11:45:15.441Z,99.90
2018-12-15T11:47:50.365Z,99.90
2018-12-15T11:50:35.387Z,99.90
2018-12-15T11:53:04.233Z,99.90
2018-12-15T11:55:32.438Z,99.90
2018-12-15T11:58:00.695Z,99.90
2018-12-15T12:00:29.085Z,99.90
2018-12-15T12:02:58.368Z,99.90
2018-12-15T12:05:26.500Z,99.90
2018-12-15T12:07:54.674Z,99.90
2018-12-15T12:10:24.142Z,99.90
2018-12-15T12:12:52.417Z,99.90
2018-12-15T12:15:20.665Z,99.90
2018-12-15T12:17:49.228Z,99.90
2018-12-15T12:20:17.376Z,99.90
2018-12-15T12:22:45.614Z,99.90
2018-12-15T12:25:13.781Z,99.90
2018-12-15T12:27:41.946Z,99.90
2018-12-15T12:30:10.137Z,99.90
2018-12-15T12:32:38.401Z,99.90
2018-12-15T12:35:06.699Z,99.90
2018-12-15T12:37:34.929Z,99.90
2018-12-15T12:40:03.919Z,99.90
2018-12-15T12:42:32.084Z,99.90
2018-12-15T12:45:00.314Z,99.90
2018-12-15T12:47:28.484Z,99.90
2018-12-15T12:49:57.367Z,99.90
2018-12-15T12:52:25.610Z,99.90
2018-12-15T12:54:53.740Z,99.90
2018-12-15T12:57:21.934Z,99.90
2018-12-15T12:59:50.077Z,99.90
2018-12-15T13:02:18.343Z,99.90
2018-12-15T13:04:46.598Z,99.90
2018-12-15T13:07:14.888Z,99.90
2018-12-15T13:09:43.052Z,99.90
2018-12-15T13:12:11.399Z,99.90
2018-12-15T13:14:39.668Z,99.90
2018-12-15T13:17:10.793Z,99.90
2018-12-15T13:19:43.830Z,99.90
2018-12-15T13:22:12.055Z,99.90
2018-12-15T13:24:40.525Z,99.90
2018-12-15T13:27:09.588Z,99.90
2018-12-15T13:29:37.997Z,99.90
2018-12-15T13:32:06.351Z,99.90
2018-12-15T13:34:34.468Z,99.90
2018-12-15T13:37:03.233Z,99.90
2018-12-15T13:39:31.556Z,99.90
2018-12-15T13:41:59.801Z,99.90
2018-12-15T13:44:28.020Z,99.90
2018-12-15T13:46:56.257Z,99.90
2018-12-15T13:49:25.574Z,99.90
2018-12-15T13:51:53.961Z,99.90
2018-12-15T13:54:22.305Z,99.90
2018-12-15T13:56:50.646Z,99.90
2018-12-15T13:59:19.062Z,99.90
2018-12-15T14:01:47.575Z,99.90
2018-12-15T14:04:16.085Z,99.90
2018-12-15T14:06:44.365Z,99.90
2018-12-15T14:09:13.000Z,99.90
2018-12-15T14:11:41.158Z,99.90
2018-12-15T14:14:09.276Z,99.90
2018-12-15T14:16:37.470Z,99.90
2018-12-15T14:19:05.662Z,99.90
2018-12-15T14:21:34.770Z,99.90
2018-12-15T14:24:02.948Z,99.90
2018-12-15T14:26:34.622Z,99.90
2018-12-15T14:29:02.877Z,99.90
2018-12-15T14:31:31.210Z,99.90
2018-12-15T14:33:59.501Z,99.90
2018-12-15T14:36:27.720Z,99.90
2018-12-15T14:38:56.158Z,99.90
2018-12-15T14:41:24.385Z,99.90
2018-12-15T14:43:52.590Z,99.90
2018-12-15T14:46:20.816Z,99.90
2018-12-15T14:48:49.039Z,99.90
2018-12-15T14:51:17.366Z,99.90
2018-12-15T14:53:45.590Z,99.90
2018-12-15T14:56:13.915Z,99.90
2018-12-15T14:58:42.538Z,99.90
2018-12-15T15:01:11.128Z,99.90
2018-12-15T15:03:40.727Z,99.90
2018-12-15T15:06:09.091Z,99.90
2018-12-15T15:08:37.527Z,99.90
2018-12-15T15:11:06.915Z,99.90
2018-12-15T15:13:35.293Z,99.90
2018-12-15T15:16:03.737Z,99.90
2018-12-15T15:18:32.328Z,99.90
2018-12-15T15:21:00.554Z,99.90
2018-12-15T15:23:28.977Z,99.90
2018-12-15T15:25:57.611Z,99.90
2018-12-15T15:28:26.327Z,99.90
2018-12-15T15:30:55.204Z,99.90
2018-12-15T15:33:23.617Z,99.90
2018-12-15T15:35:52.392Z,99.90
2018-12-15T15:38:24.082Z,99.90
2018-12-15T15:40:52.439Z,99.90
2018-12-15T15:43:20.718Z,99.90
2018-12-15T15:45:49.121Z,99.90
2018-12-15T15:48:22.867Z,99.90
2018-12-15T15:50:57.124Z,99.90
2018-12-15T15:53:25.745Z,99.90
2018-12-15T15:55:54.031Z,99.90
2018-12-15T15:58:23.353Z,99.90
2018-12-15T16:00:52.969Z,99.90
2018-12-15T16:03:21.227Z,99.90
2018-12-15T16:05:49.360Z,99.90
2018-12-15T16:08:17.644Z,99.90
2018-12-15T16:10:45.873Z,99.90
2018-12-15T16:13:14.077Z,99.90
2018-12-15T16:15:42.295Z,99.90
2018-12-15T16:18:10.600Z,99.90
2018-12-15T16:20:43.125Z,99.90
2018-12-15T16:23:09.113Z,99.90
2018-12-15T16:25:37.301Z,99.90
2018-12-15T16:28:05.428Z,99.90
2018-12-15T16:30:33.688Z,99.90
2018-12-15T16:33:02.029Z,99.90
2018-12-15T16:35:30.280Z,99.90
2018-12-15T16:37:58.841Z,99.90
2018-12-15T16:40:26.978Z,99.90
2018-12-15T16:42:55.194Z,99.90
2018-12-15T16:45:23.309Z,99.90
2018-12-15T16:47:51.606Z,99.90
2018-12-15T16:50:19.798Z,99.90
2018-12-15T16:52:48.214Z,99.90
2018-12-15T16:55:19.016Z,99.90
2018-12-15T16:57:47.318Z,99.90
2018-12-15T17:00:15.584Z,99.90
2018-12-15T17:02:44.485Z,99.90
2018-12-15T17:05:13.374Z,99.90
2018-12-15T17:07:41.538Z,99.90
2018-12-15T17:10:10.148Z,99.90
2018-12-15T17:12:38.407Z,99.90
2018-12-15T17:15:08.236Z,99.90
2018-12-15T17:17:36.474Z,99.90
2018-12-15T17:20:05.281Z,99.90
2018-12-15T17:22:33.543Z,99.90
2018-12-15T17:25:01.902Z,99.90
2018-12-15T17:27:31.690Z,99.90
2018-12-15T17:30:00.064Z,99.90
2018-12-15T17:32:28.349Z,99.90
2018-12-15T17:34:56.776Z,99.90
2018-12-15T17:37:25.012Z,99.90
2018-12-15T17:39:53.135Z,99.90
2018-12-15T17:42:21.320Z,99.90
2018-12-15T17:44:49.541Z,99.90
2018-12-15T17:47:18.556Z,99.90
2018-12-15T17:49:46.862Z,99.90
2018-12-15T17:52:15.120Z,99.90
2018-12-15T17:54:43.314Z,99.90
2018-12-15T17:57:11.605Z,99.90
2018-12-15T17:59:39.998Z,99.90
2018-12-15T18:02:08.326Z,99.90
2018-12-15T18:04:36.714Z,99.90
2018-12-15T18:07:05.720Z,99.90
2018-12-15T18:09:34.617Z,99.90
2018-12-15T18:12:03.002Z,99.90
2018-12-15T18:14:31.158Z,99.90
2018-12-15T18:16:59.544Z,99.90
2018-12-15T18:19:28.036Z,99.90
2018-12-15T18:21:56.368Z,99.90
2018-12-15T18:24:24.689Z,99.90
2018-12-15T18:26:52.923Z,99.90
2018-12-15T18:29:21.153Z,99.90
2018-12-15T18:31:49.377Z,99.90
2018-12-15T18:34:17.698Z,99.90
2018-12-15T18:36:45.990Z,99.90
2018-12-15T18:39:15.062Z,99.90
2018-12-15T18:41:43.347Z,99.90
2018-12-15T18:44:11.615Z,99.90
2018-12-15T18:46:41.097Z,99.90
2018-12-15T18:49:09.376Z,99.90
2018-12-15T18:51:37.531Z,99.90
2018-12-15T18:54:05.804Z,99.90
2018-12-15T18:56:34.170Z,99.90
2018-12-15T18:59:02.601Z,99.90
2018-12-15T19:01:30.911Z,99.90
2018-12-15T19:03:59.222Z,99.90
2018-12-15T19:06:28.449Z,99.90
2018-12-15T19:08:56.678Z,99.90
2018-12-15T19:11:25.335Z,99.90
2018-12-15T19:13:53.553Z,99.90
2018-12-15T19:16:21.824Z,99.90
2018-12-15T19:18:49.997Z,99.90
2018-12-15T19:21:22.980Z,99.90
2018-12-15T19:23:48.513Z,99.90
2018-12-15T19:26:16.714Z,99.90
2018-12-15T19:28:44.908Z,99.90
2018-12-15T19:31:13.195Z,99.90
2018-12-15T19:33:41.767Z,99.90
2018-12-15T19:36:11.599Z,99.90
2018-12-15T19:38:40.145Z,99.90
2018-12-15T19:43:45.798Z,99.90
2018-12-15T19:46:14.745Z,99.90
2018-12-15T19:48:43.610Z,99.90
2018-12-15T19:51:12.021Z,99.90
2018-12-15T19:53:41.383Z,99.90
2018-12-15T19:56:11.088Z,99.90
2018-12-15T19:58:39.664Z,99.90
2018-12-15T20:01:08.887Z,99.90
2018-12-15T20:03:37.510Z,99.90
2018-12-15T20:06:10.582Z,99.90
2018-12-15T20:08:39.222Z,99.90
2018-12-15T20:11:07.975Z,99.90
2018-12-15T20:13:36.446Z,99.90
2018-12-15T20:16:04.811Z,99.90
2018-12-15T20:18:33.053Z,99.90
2018-12-15T20:21:01.707Z,99.90
2018-12-15T20:23:30.096Z,99.90
2018-12-15T20:25:58.354Z,99.90
2018-12-15T20:28:27.550Z,99.90
2018-12-15T20:30:55.827Z,99.90
2018-12-15T20:33:24.217Z,99.90
2018-12-15T20:35:52.576Z,99.90
2018-12-15T20:38:21.421Z,99.90
2018-12-15T20:40:49.628Z,99.90
2018-12-15T20:43:18.524Z,99.90
2018-12-15T20:45:47.528Z,99.90
2018-12-15T20:48:15.942Z,99.90
2018-12-15T20:50:44.317Z,99.90
2018-12-15T20:53:12.701Z,99.90
2018-12-15T20:55:41.504Z,99.90
2018-12-15T20:58:09.652Z,99.90
2018-12-15T21:00:37.878Z,99.90
2018-12-15T21:03:06.167Z,99.90
2018-12-15T21:05:36.817Z,99.90
2018-12-15T21:08:04.851Z,99.90
2018-12-15T21:10:33.543Z,99.90
2018-12-15T21:13:01.798Z,99.90
2018-12-15T21:15:32.978Z,99.90
2018-12-15T21:18:01.692Z,99.90
2018-12-15T21:20:30.075Z,99.90
2018-12-15T21:22:58.582Z,99.90
2018-12-15T21:25:26.848Z,99.90
2018-12-15T21:27:55.352Z,99.90
2018-12-15T21:30:23.649Z,99.90
2018-12-15T21:32:52.070Z,99.90
2018-12-15T21:35:20.633Z,99.90
2018-12-15T21:37:48.871Z,99.90
2018-12-15T21:40:17.240Z,99.90
2018-12-15T21:42:45.464Z,99.90
2018-12-15T21:45:13.887Z,99.90
2018-12-15T21:47:42.980Z,99.90
2018-12-15T21:50:12.577Z,99.90
2018-12-15T21:52:41.103Z,99.90
2018-12-15T21:55:09.551Z,99.90
2018-12-15T21:57:38.177Z,99.90
2018-12-15T22:00:06.671Z,99.90
2018-12-15T22:02:36.693Z,99.90
2018-12-15T22:05:05.636Z,99.90
2018-12-15T22:07:35.675Z,99.90
2018-12-15T22:10:04.679Z,99.90
2018-12-15T22:12:33.472Z,99.90
2018-12-15T22:15:01.705Z,99.90
2018-12-15T22:17:29.941Z,99.90
2018-12-15T22:19:58.193Z,99.90
2018-12-15T22:22:26.473Z,99.90
2018-12-15T22:24:54.824Z,99.90
2018-12-15T22:27:23.157Z,99.90
2018-12-15T22:29:51.359Z,99.90
2018-12-15T22:32:19.623Z,99.90
2018-12-15T22:34:47.817Z,99.90
2018-12-15T22:37:16.207Z,99.90
2018-12-15T22:39:44.417Z,99.90
2018-12-15T22:42:12.969Z,99.90
2018-12-15T22:44:41.136Z,99.90
2018-12-15T22:47:12.685Z,99.90
2018-12-15T22:49:41.607Z,99.90
2018-12-15T22:52:10.249Z,99.90
2018-12-15T22:54:39.653Z,99.90
2018-12-15T22:57:09.061Z,99.90
2018-12-15T22:59:37.625Z,99.90
2018-12-15T23:02:05.900Z,99.90
2018-12-15T23:04:34.195Z,99.90
2018-12-15T23:07:02.502Z,99.90
2018-12-15T23:09:30.741Z,99.90
2018-12-15T23:12:09.595Z,99.90
2018-12-15T23:14:38.311Z,99.90
2018-12-15T23:20:48.787Z,99.90
2018-12-15T23:23:19.878Z,99.90
2018-12-15T23:25:48.061Z,99.90
2018-12-15T23:28:16.337Z,99.90
2018-12-15T23:30:44.687Z,99.90
2018-12-15T23:33:13.220Z,99.90
2018-12-15T23:35:42.007Z,99.90
2018-12-15T23:38:10.275Z,99.90
2018-12-15T23:40:38.534Z,99.90
2018-12-15T23:43:06.863Z,99.90
2018-12-15T23:45:35.048Z,99.90
2018-12-15T23:48:03.351Z,99.90
2018-12-15T23:50:31.642Z,99.90
2018-12-15T23:53:01.151Z,99.90
2018-12-15T23:55:29.369Z,99.90
2018-12-15T23:57:57.691Z,99.90
